Time;durP1;ratioP1;P1;durP2;ratioP2;P2;SDS_P1;SDS_P2;PMS_P1;PMS_P2;Temp;Humidity;BMP_temperature;BMP_pressure;BME280_temperature;BME280_humidity;BME280_pressure;Samples;Min_cycle;Max_cycle;Signal;HPM_P1;HPM_P2
2021/06/16 00:00:35;;;;;;;7.37;1.30;;;;;;;16.71;100.00;100225.98;1703319;84;21039;-90
2021/06/16 00:03:02;;;;;;;2.08;1.07;;;;;;;16.69;100.00;100232.39;1703099;84;20987;-89
2021/06/16 00:05:30;;;;;;;2.02;1.25;;;;;;;16.70;100.00;100243.69;1703332;83;21042;-91
2021/06/16 00:07:57;;;;;;;1.65;1.55;;;;;;;16.69;100.00;100238.73;1703248;84;21007;-90
2021/06/16 00:10:30;;;;;;;1.20;1.10;;;;;;;16.70;100.00;100236.78;1703324;84;21011;-90
2021/06/16 00:12:57;;;;;;;1.95;1.27;;;;;;;16.68;100.00;100237.09;1704145;83;21413;-91
2021/06/16 00:15:28;;;;;;;1.35;1.15;;;;;;;16.67;100.00;100243.77;1723343;83;20984;-91
2021/06/16 00:17:54;;;;;;;1.90;1.07;;;;;;;16.68;100.00;100259.17;1723166;83;20998;-90
2021/06/16 00:20:21;;;;;;;2.27;1.45;;;;;;;16.67;100.00;100263.65;1723462;83;21004;-90
2021/06/16 00:22:48;;;;;;;1.57;1.00;;;;;;;16.67;100.00;100261.70;1716505;83;21063;-92
2021/06/16 00:25:15;;;;;;;1.17;1.07;;;;;;;16.69;100.00;100266.33;1701609;83;21498;-90
2021/06/16 00:27:41;;;;;;;1.87;0.90;;;;;;;16.69;100.00;100268.25;1700135;84;21836;-91
2021/06/16 00:30:09;;;;;;;1.00;0.95;;;;;;;16.70;100.00;100261.61;1700310;84;21000;-90
2021/06/16 00:32:36;;;;;;;1.15;0.88;;;;;;;16.71;100.00;100253.56;1700407;84;22006;-91
2021/06/16 00:35:04;;;;;;;1.20;0.93;;;;;;;16.71;100.00;100268.17;1700614;84;21032;-90
2021/06/16 00:37:31;;;;;;;0.80;0.80;;;;;;;16.68;100.00;100275.72;1700352;84;21016;-92
2021/06/16 00:39:57;;;;;;;1.00;0.82;;;;;;;16.63;100.00;100277.27;1700585;83;21552;-90
2021/06/16 00:42:24;;;;;;;2.17;1.57;;;;;;;16.63;100.00;100283.36;1700609;83;21047;-91
2021/06/16 00:44:51;;;;;;;1.42;1.22;;;;;;;16.64;100.00;100280.83;1700658;84;20996;-91
2021/06/16 00:47:18;;;;;;;1.30;1.00;;;;;;;16.66;100.00;100280.75;1700518;84;21838;-90
2021/06/16 00:49:45;;;;;;;1.35;1.02;;;;;;;16.68;100.00;100277.67;1700392;84;21024;-90
2021/06/16 00:52:11;;;;;;;2.15;1.05;;;;;;;16.68;100.00;100264.69;1700299;84;21390;-90
2021/06/16 00:54:38;;;;;;;1.60;0.90;;;;;;;16.70;100.00;100263.80;1700382;84;21007;-90
2021/06/16 00:57:05;;;;;;;1.77;1.50;;;;;;;16.70;100.00;100248.62;1700483;84;21007;-90
2021/06/16 00:59:36;;;;;;;1.37;0.98;;;;;;;16.71;100.00;100241.16;1676856;84;20995;-89
2021/06/16 01:02:04;;;;;;;1.12;1.00;;;;;;;16.69;100.00;100252.53;1699750;83;21015;-90
2021/06/16 01:04:30;;;;;;;1.65;1.20;;;;;;;16.69;100.00;100249.77;1700166;84;21007;-90
2021/06/16 01:07:01;;;;;;;3.52;1.40;;;;;;;16.68;100.00;100248.71;1699612;84;21750;-91
2021/06/16 01:09:34;;;;;;;1.02;0.88;;;;;;;16.65;100.00;100251.55;1700338;84;21048;-91
2021/06/16 01:12:26;;;;;;;1.52;1.37;;;;;;;16.64;100.00;100248.56;1700332;83;21023;-90
2021/06/16 01:14:57;;;;;;;3.30;1.35;;;;;;;16.64;100.00;100243.05;1700358;83;21417;-91
2021/06/16 01:17:29;;;;;;;2.10;1.27;;;;;;;16.62;100.00;100227.38;1682679;84;21008;-91
2021/06/16 01:20:22;;;;;;;2.67;1.00;;;;;;;16.62;100.00;100214.97;1700043;83;21051;-89
2021/06/16 01:23:11;;;;;;;1.00;0.90;;;;;;;16.65;100.00;100223.97;1700330;83;20984;-92
2021/06/16 01:26:03;;;;;;;2.95;1.10;;;;;;;16.67;100.00;100231.92;1701825;83;21004;-92
2021/06/16 01:28:35;;;;;;;1.90;0.88;;;;;;;16.70;100.00;100221.03;1703454;84;21031;-91
2021/06/16 01:31:02;;;;;;;1.47;0.75;;;;;;;16.72;100.00;100216.01;1703290;84;20999;-91
2021/06/16 01:33:28;;;;;;;3.95;1.05;;;;;;;16.75;100.00;100224.20;1683036;84;21086;-90
2021/06/16 01:35:55;;;;;;;1.30;0.88;;;;;;;16.77;100.00;100202.05;1703159;83;21389;-92
2021/06/16 01:38:23;;;;;;;1.37;1.10;;;;;;;16.80;100.00;100195.66;1703377;84;21023;-91
2021/06/16 01:40:52;;;;;;;0.72;0.72;;;;;;;16.81;100.00;100187.62;1703313;84;21380;-91
2021/06/16 01:43:19;;;;;;;1.70;0.98;;;;;;;16.80;100.00;100188.77;1703440;84;21000;-91
2021/06/16 01:45:46;;;;;;;0.68;0.62;;;;;;;16.76;100.00;100185.26;1679348;84;21350;-91
2021/06/16 01:48:16;;;;;;;2.37;1.10;;;;;;;16.73;100.00;100191.41;1672115;84;21087;-90
2021/06/16 01:50:43;;;;;;;1.10;0.98;;;;;;;16.70;100.00;100187.13;1702819;84;21055;-89
2021/06/16 01:53:10;;;;;;;1.27;0.70;;;;;;;16.66;100.00;100177.30;1702734;82;21477;-91
2021/06/16 01:55:38;;;;;;;1.25;0.85;;;;;;;16.64;100.00;100186.50;1683228;84;21015;-91
2021/06/16 01:58:06;;;;;;;0.62;0.62;;;;;;;16.61;100.00;100189.88;1703110;84;21046;-90
2021/06/16 02:00:33;;;;;;;1.25;1.00;;;;;;;16.58;100.00;100194.68;1682972;84;21366;-91
2021/06/16 02:03:00;;;;;;;1.98;1.15;;;;;;;16.56;100.00;100200.51;1703233;83;21451;-91
2021/06/16 02:05:27;;;;;;;1.27;1.10;;;;;;;16.53;100.00;100209.44;1703235;84;21054;-90
2021/06/16 02:08:04;;;;;;;0.82;0.65;;;;;;;16.50;100.00;100205.16;1703034;84;20976;-90
2021/06/16 02:10:37;;;;;;;0.82;0.80;;;;;;;16.47;100.00;100189.27;1702872;84;21011;-90
2021/06/16 02:13:06;;;;;;;2.65;1.77;;;;;;;16.45;100.00;100192.91;1702964;83;21000;-89
2021/06/16 02:15:40;;;;;;;1.00;0.90;;;;;;;16.44;100.00;100197.59;1703162;84;21047;-91
2021/06/16 02:18:07;;;;;;;1.17;1.05;;;;;;;16.42;100.00;100181.97;1702792;84;20999;-91
2021/06/16 02:20:34;;;;;;;0.72;0.72;;;;;;;16.42;100.00;100173.69;1672222;84;21007;-91
2021/06/16 02:23:00;;;;;;;1.32;0.82;;;;;;;16.42;100.00;100172.31;1703184;83;21003;-90
2021/06/16 02:25:28;;;;;;;1.85;1.00;;;;;;;16.42;100.00;100160.45;1702273;83;20999;-91
2021/06/16 02:27:54;;;;;;;1.75;0.85;;;;;;;16.42;100.00;100159.06;1700456;84;21031;-89
2021/06/16 02:30:21;;;;;;;0.62;0.45;;;;;;;16.40;100.00;100147.58;1700169;84;21043;-91
2021/06/16 02:32:48;;;;;;;1.25;1.00;;;;;;;16.40;100.00;100147.58;1700174;83;21315;-90
2021/06/16 02:35:15;;;;;;;1.07;0.72;;;;;;;16.39;100.00;100142.61;1700327;84;21004;-90
2021/06/16 02:37:48;;;;;;;0.68;0.57;;;;;;;16.41;100.00;100138.16;1700459;84;21015;-89
2021/06/16 02:40:16;;;;;;;1.05;0.70;;;;;;;16.41;100.00;100138.16;1700430;84;21084;-90
2021/06/16 02:42:46;;;;;;;1.32;1.00;;;;;;;16.42;100.00;100139.22;1700462;84;20976;-89
2021/06/16 02:45:14;;;;;;;2.35;0.88;;;;;;;16.44;100.00;100149.33;1700471;84;21040;-90
2021/06/16 02:47:47;;;;;;;0.85;0.85;;;;;;;16.46;100.00;100160.05;1701124;83;21075;-91
2021/06/16 02:50:17;;;;;;;0.85;0.57;;;;;;;16.47;100.00;100163.06;1700219;83;20999;-90
2021/06/16 02:52:43;;;;;;;1.25;1.05;;;;;;;16.50;100.00;100167.92;1700409;84;21402;-90
2021/06/16 02:55:10;;;;;;;0.70;0.70;;;;;;;16.52;100.00;100167.03;1700227;84;21019;-90
2021/06/16 02:57:39;;;;;;;1.20;1.00;;;;;;;16.56;100.00;100179.02;1700698;84;21027;-91
2021/06/16 03:00:09;;;;;;;0.98;0.90;;;;;;;16.58;100.00;100179.51;1700431;84;21011;-90
2021/06/16 03:02:37;;;;;;;0.88;0.70;;;;;;;16.60;100.00;100178.62;1698802;84;21414;-90
2021/06/16 03:05:05;;;;;;;0.53;0.50;;;;;;;16.62;100.00;100184.62;1695254;84;21634;-90
2021/06/16 03:07:33;;;;;;;1.05;0.78;;;;;;;16.65;100.00;100186.72;1670138;84;21065;-91
2021/06/16 03:10:01;;;;;;;1.05;0.98;;;;;;;16.66;100.00;100178.67;1695596;84;21069;-90
2021/06/16 03:12:27;;;;;;;1.85;0.90;;;;;;;16.70;100.00;100180.23;1696068;84;21057;-89
2021/06/16 03:14:55;;;;;;;0.72;0.72;;;;;;;16.72;100.00;100184.28;1695705;84;21010;-89
2021/06/16 03:30:58;;;;;;;2.00;1.40;;;;;;;16.92;100.00;100207.65;1744298;81;21349;-90
2021/06/16 03:33:24;;;;;;;0.85;0.65;;;;;;;16.99;100.00;100203.02;1707631;84;21381;-89
2021/06/16 03:35:51;;;;;;;2.08;1.17;;;;;;;17.06;100.00;100201.95;1708269;82;21080;-91
2021/06/16 03:38:17;;;;;;;1.60;1.02;;;;;;;17.12;100.00;100211.66;1707806;84;21065;-89
2021/06/16 03:40:46;;;;;;;1.72;1.30;;;;;;;17.19;100.00;100210.58;1760162;80;21484;-90
2021/06/16 03:43:12;;;;;;;1.80;0.90;;;;;;;17.27;100.00;100215.03;1711878;83;20985;-89
2021/06/16 03:45:40;;;;;;;3.70;1.82;;;;;;;17.36;100.00;100222.72;1710135;83;21530;-90
2021/06/16 03:48:08;;;;;;;1.92;1.17;;;;;;;17.39;100.00;100210.43;1743767;80;21570;-91
2021/06/16 03:50:37;;;;;;;1.92;1.57;;;;;;;17.45;100.00;100218.53;1707571;84;21037;-89
2021/06/16 03:53:04;;;;;;;1.95;1.32;;;;;;;17.49;100.00;100225.83;1743844;80;21006;-88
2021/06/16 03:55:31;;;;;;;1.87;0.93;;;;;;;17.57;100.00;100230.50;1709912;83;21498;-90
2021/06/16 03:57:58;;;;;;;2.02;1.20;;;;;;;17.64;100.00;100225.84;1710409;82;21045;-91
2021/06/16 04:00:24;;;;;;;1.72;1.10;;;;;;;17.77;100.00;100226.75;1743477;81;21014;-90
2021/06/16 04:02:51;;;;;;;2.22;1.22;;;;;;;17.94;100.00;100219.77;1663938;84;21029;-91
2021/06/16 04:05:17;;;;;;;2.62;1.80;;;;;;;18.11;100.00;100234.64;1708186;83;21012;-88
2021/06/16 04:07:48;;;;;;;1.95;1.42;;;;;;;18.25;100.00;100229.67;1707525;82;20970;-89
2021/06/16 04:10:15;;;;;;;2.40;1.60;;;;;;;18.36;100.00;100225.92;1707622;84;21416;-89
2021/06/16 04:12:41;;;;;;;1.45;1.17;;;;;;;18.44;100.00;100223.07;1679506;84;21033;-89
2021/06/16 04:15:10;;;;;;;2.08;1.07;;;;;;;18.55;100.00;100230.98;1687382;83;20985;-90
2021/06/16 04:17:36;;;;;;;1.80;0.88;;;;;;;18.62;100.00;100238.98;1707653;82;21009;-90
2021/06/16 04:20:04;;;;;;;1.75;1.47;;;;;;;18.69;100.00;100240.63;1686157;84;21029;-91
2021/06/16 04:22:30;;;;;;;1.55;1.10;;;;;;;18.74;100.00;100246.50;1707576;82;20970;-89
2021/06/16 04:24:57;;;;;;;2.47;1.47;;;;;;;18.74;100.00;100245.12;1688147;84;21456;-89
2021/06/16 04:27:24;;;;;;;2.05;1.20;;;;;;;18.74;100.00;100245.12;1744033;80;21400;-91
2021/06/16 04:29:50;;;;;;;2.83;1.15;;;;;;;18.72;100.00;100259.89;1708531;83;21033;-90
2021/06/16 04:32:17;;;;;;;0.70;0.65;;;;;;;18.67;100.00;100261.48;1705308;82;21392;-90
2021/06/16 04:34:44;;;;;;;1.72;1.10;;;;;;;18.63;100.00;100267.45;1709102;83;21656;-91
2021/06/16 04:37:11;;;;;;;1.60;1.30;;;;;;;18.59;100.00;100270.65;1707648;82;20993;-91
2021/06/16 04:39:38;;;;;;;3.05;1.90;;;;;;;18.57;100.00;100284.84;1707504;83;20989;-89
2021/06/16 04:42:06;;;;;;;0.85;0.80;;;;;;;18.58;100.00;100288.41;1707427;82;21006;-90
2021/06/16 04:44:33;;;;;;;1.50;0.90;;;;;;;18.61;100.00;100290.50;1707646;83;21033;-90
2021/06/16 04:47:00;;;;;;;1.00;0.93;;;;;;;18.67;100.00;100296.08;1707233;82;21452;-90
2021/06/16 04:49:28;;;;;;;1.35;0.82;;;;;;;18.72;100.00;100297.26;1713771;82;20988;-90
2021/06/16 04:51:54;;;;;;;0.82;0.82;;;;;;;18.75;100.00;100292.42;1715810;82;20990;-90
2021/06/16 04:54:21;;;;;;;0.82;0.70;;;;;;;18.78;100.00;100290.97;1729684;82;21463;-89
2021/06/16 04:56:48;;;;;;;1.22;1.12;;;;;;;18.81;100.00;100292.47;1709107;82;21021;-88
2021/06/16 04:59:14;;;;;;;1.80;1.30;;;;;;;18.84;100.00;100297.35;1684241;84;21023;-90
2021/06/16 05:01:41;;;;;;;0.95;0.80;;;;;;;18.86;100.00;100301.95;1687951;83;21039;-90
2021/06/16 05:04:07;;;;;;;1.57;1.02;;;;;;;18.91;100.00;100303.12;1707140;83;21598;-89
2021/06/16 05:06:34;;;;;;;1.90;1.20;;;;;;;18.95;100.00;100308.81;1708343;82;21016;-89
2021/06/16 05:09:01;;;;;;;1.35;1.00;;;;;;;19.04;100.00;100317.02;1696572;83;21006;-90
2021/06/16 05:11:28;;;;;;;0.88;0.80;;;;;;;19.12;100.00;100310.62;1690269;83;20985;-91
2021/06/16 05:13:56;;;;;;;1.17;1.07;;;;;;;19.12;100.00;100310.62;1707617;83;20988;-89
2021/06/16 05:16:22;;;;;;;1.60;1.35;;;;;;;19.17;100.00;100307.63;1693823;83;20990;-89
2021/06/16 05:18:50;;;;;;;1.07;1.00;;;;;;;19.25;100.00;100311.47;1679268;85;21027;-90
2021/06/16 05:21:17;;;;;;;1.80;1.30;;;;;;;19.33;100.00;100311.36;1678922;85;21037;-89
2021/06/16 05:23:44;;;;;;;1.65;1.00;;;;;;;19.41;100.00;100314.39;1679466;84;21471;-90
2021/06/16 05:26:11;;;;;;;1.55;0.78;;;;;;;19.46;100.00;100318.32;1693905;82;21017;-89
2021/06/16 05:28:37;;;;;;;0.68;0.68;;;;;;;19.52;100.00;100318.36;1743004;81;21056;-90
2021/06/16 05:31:05;;;;;;;1.67;1.10;;;;;;;19.58;100.00;100305.08;1706489;82;21448;-90
2021/06/16 05:33:31;;;;;;;2.45;1.32;;;;;;;19.66;100.00;100300.83;1742687;81;21025;-88
2021/06/16 05:35:58;;;;;;;0.93;0.82;;;;;;;19.71;100.00;100299.25;1705315;82;21408;-89
2021/06/16 05:38:25;;;;;;;1.82;0.93;;;;;;;19.75;100.00;100298.77;1742810;81;20995;-90
2021/06/16 05:40:52;;;;;;;1.57;1.02;;;;;;;19.79;100.00;100296.14;1705797;82;21001;-90
2021/06/16 05:43:18;;;;;;;2.40;1.07;;;;;;;19.89;100.00;100290.72;1706932;83;20989;-91
2021/06/16 05:45:45;;;;;;;2.17;1.30;;;;;;;19.98;100.00;100292.22;1707785;82;21058;-89
2021/06/16 05:48:12;;;;;;;3.25;1.37;;;;;;;20.08;100.00;100284.57;1707660;83;20981;-90
2021/06/16 05:50:39;;;;;;;2.08;0.90;;;;;;;20.17;100.00;100284.68;1707686;83;20978;-90
2021/06/16 05:53:07;;;;;;;1.95;1.10;;;;;;;20.25;100.00;100289.07;1683738;83;21135;-89
2021/06/16 05:55:35;;;;;;;1.35;1.20;;;;;;;20.32;100.00;100294.84;1667595;85;38173;-90
2021/06/16 05:58:02;;;;;;;1.35;0.70;;;;;;;20.39;100.00;100303.39;1676802;84;20998;-89
2021/06/16 06:00:29;;;;;;;2.70;1.15;;;;;;;20.43;100.00;100308.48;1684720;84;21006;-90
2021/06/16 06:02:55;;;;;;;2.22;1.05;;;;;;;20.42;100.00;100312.40;1674239;85;21057;-89
2021/06/16 06:05:22;;;;;;;1.07;0.95;;;;;;;20.36;100.00;100309.64;1663413;84;21217;-89
2021/06/16 06:07:48;;;;;;;2.10;1.02;;;;;;;20.31;100.00;100314.05;1692568;83;20991;-88
2021/06/16 06:10:17;;;;;;;1.10;1.00;;;;;;;20.23;100.00;100320.51;1692080;83;21038;-90
2021/06/16 06:12:43;;;;;;;1.20;1.10;;;;;;;20.21;100.00;100322.27;1692153;83;20968;-89
2021/06/16 06:15:12;;;;;;;2.25;1.57;;;;;;;20.21;100.00;100313.14;1707477;83;21013;-90
2021/06/16 06:17:38;;;;;;;1.42;1.15;;;;;;;20.22;100.00;100315.55;1707148;82;21001;-90
2021/06/16 06:20:06;;;;;;;1.40;1.30;;;;;;;20.31;100.00;100309.30;1707396;83;21590;-90
2021/06/16 06:22:33;;;;;;;1.35;1.10;;;;;;;20.45;100.00;100304.78;1741272;81;21028;-90
2021/06/16 06:25:00;;;;;;;1.47;1.17;;;;;;;20.56;100.00;100305.94;1727617;81;22014;-91
2021/06/16 06:27:26;;;;;;;1.60;1.35;;;;;;;20.65;99.72;100309.14;1678308;84;21017;-91
2021/06/16 06:29:52;;;;;;;1.75;1.30;;;;;;;20.68;97.28;100298.75;1678414;85;20989;-90
2021/06/16 06:32:19;;;;;;;1.62;0.93;;;;;;;20.67;96.57;100308.22;1712468;82;20961;-92
2021/06/16 06:34:45;;;;;;;2.08;1.15;;;;;;;20.60;96.31;100318.55;1695563;84;20994;-90
2021/06/16 06:37:12;;;;;;;1.70;1.30;;;;;;;20.55;95.98;100327.12;1705469;82;21065;-89
2021/06/16 06:39:41;;;;;;;2.12;1.27;;;;;;;20.50;96.50;100339.23;1707361;83;21025;-89
2021/06/16 06:42:08;;;;;;;1.77;1.02;;;;;;;20.50;96.26;100341.17;1681257;83;21355;-89
2021/06/16 06:44:35;;;;;;;2.60;1.42;;;;;;;20.52;96.06;100338.87;1683919;83;21572;-90
2021/06/16 06:47:03;;;;;;;1.42;1.22;;;;;;;20.55;95.74;100337.64;1704713;82;20990;-90
2021/06/16 06:49:29;;;;;;;1.82;1.47;;;;;;;20.56;95.33;100333.69;1678661;85;21042;-90
2021/06/16 06:51:57;;;;;;;2.15;1.40;;;;;;;20.58;94.17;100345.26;1678638;84;21009;-90
2021/06/16 06:54:23;;;;;;;1.70;1.60;;;;;;;20.59;93.04;100345.47;1685764;84;21045;-90
2021/06/16 06:56:51;;;;;;;1.82;1.40;;;;;;;20.64;93.02;100346.41;1668320;84;21025;-90
2021/06/16 06:59:19;;;;;;;1.45;1.22;;;;;;;20.76;94.52;100348.57;1664023;85;21001;-91
2021/06/16 07:01:46;;;;;;;3.77;1.77;;;;;;;21.07;96.53;100353.22;1657829;84;20982;-91
2021/06/16 07:04:12;;;;;;;1.72;1.45;;;;;;;21.36;93.35;100347.30;1662178;85;21578;-90
2021/06/16 07:06:39;;;;;;;2.33;1.60;;;;;;;21.64;93.80;100357.64;1663314;84;20990;-89
2021/06/16 07:09:06;;;;;;;2.10;1.72;;;;;;;21.96;91.19;100356.25;1664086;86;20979;-91
2021/06/16 07:11:33;;;;;;;2.90;1.52;;;;;;;22.23;89.70;100359.58;1664049;84;21030;-91
2021/06/16 07:14:00;;;;;;;2.87;1.65;;;;;;;22.38;87.34;100362.11;1664142;86;21009;-91
2021/06/16 07:16:26;;;;;;;1.70;1.35;;;;;;;22.43;86.42;100358.25;1664156;84;21045;-92
2021/06/16 07:18:53;;;;;;;1.40;1.20;;;;;;;22.40;86.71;100358.95;1664104;86;21512;-89
2021/06/16 07:21:20;;;;;;;2.72;1.77;;;;;;;22.30;86.65;100362.53;1679106;84;21044;-91
2021/06/16 07:23:47;;;;;;;2.65;1.62;;;;;;;22.21;87.04;100356.34;1713975;82;20988;-90
2021/06/16 07:26:14;;;;;;;1.95;1.30;;;;;;;22.14;86.52;100360.89;1712433;82;21430;-91
2021/06/16 07:28:41;;;;;;;1.47;1.27;;;;;;;22.08;85.76;100358.38;1713797;82;21042;-91
2021/06/16 07:31:09;;;;;;;3.22;1.65;;;;;;;22.03;85.46;100364.78;1688507;84;21096;-91
2021/06/16 07:33:35;;;;;;;1.75;1.20;;;;;;;21.98;86.26;100362.27;1679264;84;20998;-91
2021/06/16 07:36:02;;;;;;;2.02;1.40;;;;;;;21.95;86.74;100360.21;1713575;82;21006;-89
2021/06/16 07:38:28;;;;;;;2.72;1.98;;;;;;;21.94;87.40;100350.27;1719997;82;21439;-91
2021/06/16 07:40:55;;;;;;;1.80;1.32;;;;;;;21.95;87.62;100358.23;1714246;82;21064;-90
2021/06/16 07:43:21;;;;;;;2.30;1.47;;;;;;;21.98;87.91;100352.53;1711831;83;20975;-90
2021/06/16 07:45:48;;;;;;;1.32;1.20;;;;;;;21.96;86.95;100359.86;1712648;82;21035;-91
2021/06/16 07:48:14;;;;;;;2.25;1.50;;;;;;;21.97;87.51;100360.08;1713682;83;21014;-90
2021/06/16 07:50:42;;;;;;;2.40;1.60;;;;;;;21.95;86.38;100367.97;1713284;82;21471;-91
2021/06/16 07:53:09;;;;;;;2.25;1.50;;;;;;;21.91;86.58;100374.05;1713695;82;21463;-90
2021/06/16 07:55:38;;;;;;;1.40;0.98;;;;;;;21.87;86.87;100373.13;1712492;82;21026;-91
2021/06/16 07:58:06;;;;;;;1.40;1.27;;;;;;;21.80;88.36;100377.11;1712413;82;20975;-92
2021/06/16 08:00:34;;;;;;;1.57;1.40;;;;;;;21.74;89.13;100375.19;1712730;83;21010;-91
2021/06/16 08:03:00;;;;;;;1.47;1.12;;;;;;;21.65;89.77;100367.58;1712924;82;21022;-91
2021/06/16 08:05:27;;;;;;;2.62;1.72;;;;;;;21.62;90.66;100371.09;1714442;83;21002;-90
2021/06/16 08:07:53;;;;;;;1.65;1.55;;;;;;;21.64;90.47;100380.69;1701702;83;21018;-91
2021/06/16 08:10:20;;;;;;;1.32;1.10;;;;;;;21.69;90.10;100376.84;1714350;83;20998;-91
2021/06/16 08:12:47;;;;;;;1.67;1.30;;;;;;;21.77;90.54;100370.30;1713353;82;21069;-91
2021/06/16 08:15:15;;;;;;;1.57;1.17;;;;;;;21.93;89.93;100372.27;1713002;83;20998;-91
2021/06/16 08:17:41;;;;;;;1.87;1.47;;;;;;;22.11;90.06;100367.98;1713203;82;20994;-91
2021/06/16 08:20:08;;;;;;;2.00;1.35;;;;;;;22.36;88.72;100361.66;1712303;82;21002;-91
2021/06/16 08:22:35;;;;;;;1.60;1.30;;;;;;;22.66;88.92;100361.16;1713310;82;21014;-91
2021/06/16 08:25:05;;;;;;;1.50;1.27;;;;;;;22.97;86.17;100358.83;1712013;83;20974;-91
2021/06/16 08:27:31;;;;;;;1.37;0.88;;;;;;;23.28;86.69;100363.49;1711621;82;21065;-92
2021/06/16 08:29:57;;;;;;;1.82;1.30;;;;;;;23.56;81.45;100367.41;1713560;83;21610;-91
2021/06/16 08:32:24;;;;;;;2.40;1.07;;;;;;;23.76;81.80;100359.03;1712948;82;20962;-91
2021/06/16 08:34:50;;;;;;;0.75;0.75;;;;;;;24.00;83.60;100360.06;1714550;82;21013;-91
2021/06/16 08:37:17;;;;;;;1.00;0.90;;;;;;;24.29;82.40;100363.92;1713905;82;21017;-91
2021/06/16 08:39:44;;;;;;;1.42;1.10;;;;;;;24.57;80.12;100359.39;1714592;83;21069;-91
2021/06/16 08:42:10;;;;;;;2.25;1.55;;;;;;;24.73;77.91;100363.39;1713966;82;21038;-92
2021/06/16 08:44:37;;;;;;;1.37;1.10;;;;;;;24.79;74.48;100376.67;1714313;82;21022;-91
2021/06/16 08:47:04;;;;;;;1.32;1.17;;;;;;;24.71;72.58;100377.76;1713851;82;20998;-92
2021/06/16 08:49:31;;;;;;;1.15;1.00;;;;;;;24.58;73.94;100377.18;1714160;82;21014;-92
2021/06/16 08:51:58;;;;;;;2.00;1.10;;;;;;;24.44;73.59;100381.11;1703778;82;20991;-90
2021/06/16 08:54:25;;;;;;;1.47;1.15;;;;;;;24.32;73.35;100383.52;1714327;83;21014;-91
2021/06/16 08:56:51;;;;;;;1.40;1.30;;;;;;;24.24;74.10;100381.20;1713911;82;21021;-90
2021/06/16 08:59:17;;;;;;;1.67;0.98;;;;;;;24.29;75.11;100380.69;1704404;83;21017;-90
2021/06/16 09:01:44;;;;;;;1.37;0.90;;;;;;;24.43;75.60;100384.50;1714951;82;21014;-92
2021/06/16 09:04:11;;;;;;;1.55;1.12;;;;;;;24.72;74.95;100382.75;1714129;82;21484;-93
2021/06/16 09:06:37;;;;;;;2.92;1.00;;;;;;;25.02;73.21;100386.95;1694373;84;20978;-92
2021/06/16 09:09:06;;;;;;;2.55;1.57;;;;;;;25.26;73.94;100392.08;1725859;82;21053;-93
2021/06/16 09:11:47;;;;;;;1.80;1.35;;;;;;;25.36;72.65;100387.80;1743307;80;21003;-92
2021/06/16 09:14:22;;;;;;;1.12;1.07;;;;;;;25.42;72.74;100391.06;1707881;83;21029;-92
2021/06/16 09:16:50;;;;;;;1.35;1.00;;;;;;;25.42;72.52;100399.45;1743522;80;20978;-93
2021/06/16 09:19:23;;;;;;;1.12;1.02;;;;;;;25.43;73.22;100392.69;1707172;83;21009;-92
2021/06/16 09:22:02;;;;;;;1.10;0.93;;;;;;;25.58;74.46;100391.66;1742572;80;21061;-93
2021/06/16 09:24:53;;;;;;;2.10;1.35;;;;;;;25.77;71.32;100387.87;1704684;83;20998;-93
2021/06/16 09:27:46;;;;;;;1.27;1.17;;;;;;;25.99;71.23;100381.91;1713309;82;20995;-92
2021/06/16 09:30:24;;;;;;;1.55;1.30;;;;;;;26.24;70.23;100385.52;1679450;85;21037;-91
2021/06/16 09:32:58;;;;;;;1.72;0.88;;;;;;;26.44;68.67;100395.88;1679029;84;21018;-91
2021/06/16 09:35:31;;;;;;;1.72;1.40;;;;;;;26.60;70.00;100397.20;1690560;84;21630;-92
2021/06/16 09:38:03;;;;;;;1.30;0.90;;;;;;;26.76;68.15;100401.12;1706146;82;20997;-91
2021/06/16 09:40:41;;;;;;;3.17;0.90;;;;;;;26.82;67.90;100415.56;1707328;83;20977;-93
2021/06/16 09:43:16;;;;;;;2.17;1.30;;;;;;;26.74;65.67;100411.13;1708415;82;21069;-92
2021/06/16 09:45:44;;;;;;;1.47;1.10;;;;;;;26.49;67.13;100415.92;1743497;81;21026;-90
2021/06/16 09:48:25;;;;;;;1.30;0.85;;;;;;;26.35;68.20;100415.20;1705171;83;21002;-93
2021/06/16 09:51:13;;;;;;;0.90;0.80;;;;;;;26.30;69.02;100406.36;1741181;81;21030;-94
2021/06/16 09:54:13;;;;;;;1.05;0.95;;;;;;;26.31;68.43;100407.39;1734680;82;20982;-92
2021/06/16 09:56:47;;;;;;;2.15;1.37;;;;;;;26.32;67.54;100399.78;1739367;82;21396;-93
2021/06/16 09:59:14;;;;;;;1.10;1.00;;;;;;;26.35;69.01;100396.20;1695837;83;21495;-92
2021/06/16 10:01:52;;;;;;;1.30;1.00;;;;;;;26.35;68.67;100383.59;1696389;82;21001;-92
2021/06/16 10:04:39;;;;;;;2.85;1.50;;;;;;;26.35;68.51;100389.20;1676926;84;21006;-93
2021/06/16 10:07:22;;;;;;;1.62;1.15;;;;;;;26.33;65.28;100387.38;1677602;84;21077;-93
2021/06/16 10:09:56;;;;;;;1.17;0.90;;;;;;;26.20;64.55;100381.88;1719201;82;21335;-93
2021/06/16 10:12:26;;;;;;;0.90;0.80;;;;;;;26.04;65.98;100389.13;1724755;82;21035;-92
2021/06/16 10:14:52;;;;;;;2.47;1.70;;;;;;;25.89;66.82;100389.59;1725700;82;21486;-93
2021/06/16 10:17:19;;;;;;;1.98;1.62;;;;;;;25.56;67.14;100381.44;1724809;82;21290;-93
2021/06/16 10:19:46;;;;;;;2.27;1.17;;;;;;;25.11;69.28;100367.91;1726002;83;21465;-91
2021/06/16 10:22:13;;;;;;;1.72;1.32;;;;;;;24.78;68.21;100384.05;1728260;82;21014;-92
2021/06/16 10:24:40;;;;;;;1.87;1.00;;;;;;;24.43;68.43;100376.13;1707323;83;21050;-91
2021/06/16 10:27:09;;;;;;;0.88;0.88;;;;;;;24.10;69.89;100374.58;1725979;82;20986;-92
2021/06/16 10:29:40;;;;;;;1.60;1.27;;;;;;;23.82;68.85;100367.33;1726428;82;21046;-92
2021/06/16 10:32:08;;;;;;;2.85;1.55;;;;;;;23.61;69.82;100364.34;1706902;82;20990;-91
2021/06/16 10:34:55;;;;;;;1.47;0.95;;;;;;;23.38;71.17;100367.67;1706935;83;21068;-91
2021/06/16 10:37:35;;;;;;;1.98;0.88;;;;;;;23.21;73.05;100375.09;1707598;83;21025;-91
2021/06/16 10:40:24;;;;;;;1.00;0.90;;;;;;;23.02;75.15;100364.17;1707848;83;21555;-92
2021/06/16 10:43:05;;;;;;;1.87;1.27;;;;;;;22.99;75.60;100369.05;1706849;83;21026;-91
2021/06/16 10:45:40;;;;;;;1.98;1.07;;;;;;;23.04;75.82;100377.13;1672474;85;21089;-91
2021/06/16 10:48:09;;;;;;;0.70;0.70;;;;;;;23.14;77.47;100382.11;1692635;83;21030;-91
2021/06/16 10:50:53;;;;;;;3.40;1.55;;;;;;;23.31;77.71;100377.28;1727200;83;20995;-91
2021/06/16 10:53:24;;;;;;;2.30;1.20;;;;;;;23.42;76.43;100379.70;1740751;81;21002;-92
2021/06/16 10:55:58;;;;;;;1.67;1.25;;;;;;;23.50;75.70;100384.23;1741802;81;21041;-92
2021/06/16 10:58:30;;;;;;;1.70;1.07;;;;;;;23.56;76.23;100392.51;1705410;83;21057;-91
2021/06/16 11:01:15;;;;;;;1.77;1.12;;;;;;;23.63;76.18;100384.88;1704318;82;20986;-91
2021/06/16 11:03:54;;;;;;;1.47;1.37;;;;;;;23.73;75.96;100378.72;1706106;84;21056;-92
2021/06/16 11:06:37;;;;;;;2.02;1.37;;;;;;;23.92;76.85;100373.69;1707806;82;21075;-91
2021/06/16 11:09:13;;;;;;;2.35;1.52;;;;;;;24.08;75.87;100376.93;1705719;83;20965;-92
2021/06/16 11:12:04;;;;;;;1.60;1.50;;;;;;;24.22;74.64;100372.98;1707240;82;21452;-92
2021/06/16 11:14:43;;;;;;;1.75;1.45;;;;;;;24.36;75.02;100366.84;1707826;83;21005;-91
2021/06/16 11:17:12;;;;;;;1.87;1.62;;;;;;;24.39;73.34;100362.69;1740228;81;20999;-92
2021/06/16 11:19:40;;;;;;;3.77;1.57;;;;;;;24.33;71.79;100372.58;1721619;83;20991;-91
2021/06/16 11:22:18;;;;;;;1.67;1.40;;;;;;;24.13;71.70;100381.60;1727382;82;21073;-92
2021/06/16 11:25:10;;;;;;;4.50;1.72;;;;;;;23.91;72.51;100394.41;1738587;81;20990;-91
2021/06/16 11:28:06;;;;;;;1.22;1.02;;;;;;;23.70;73.03;100396.17;1705261;82;20974;-91
2021/06/16 11:30:47;;;;;;;2.42;1.20;;;;;;;23.51;74.08;100395.59;1691462;84;21041;-92
2021/06/16 11:33:22;;;;;;;5.85;1.55;;;;;;;23.46;75.07;100397.30;1714163;82;21005;-91
2021/06/16 11:36:01;;;;;;;1.22;0.80;;;;;;;23.45;76.50;100401.27;1730494;82;20991;-92
2021/06/16 11:38:31;;;;;;;0.50;0.50;;;;;;;23.43;77.04;100400.02;1733027;82;20998;-91
2021/06/16 11:41:21;;;;;;;1.07;1.00;;;;;;;23.39;76.04;100415.27;1733848;81;21014;-91
2021/06/16 11:44:10;;;;;;;0.65;0.60;;;;;;;23.33;76.13;100418.15;1734967;82;20994;-91
2021/06/16 11:46:43;;;;;;;0.75;0.70;;;;;;;23.26;76.80;100422.18;1701623;82;21006;-90